sensor_id;sensor_type;location;lat;lon;timestamp;P1;durP1;ratioP1;P2;durP2;ratioP2
70102;SDS011;57470;50.034;15.256;2024-02-23T00:00:50;9.27;;;2.97;;
70102;SDS011;57470;50.034;15.256;2024-02-23T00:03:15;8.80;;;2.90;;
70102;SDS011;57470;50.034;15.256;2024-02-23T00:05:41;9.20;;;2.57;;
70102;SDS011;57470;50.034;15.256;2024-02-23T00:08:06;9.97;;;3.03;;
70102;SDS011;57470;50.034;15.256;2024-02-23T00:10:32;9.82;;;3.10;;
70102;SDS011;57470;50.034;15.256;2024-02-23T00:12:57;8.97;;;2.37;;
70102;SDS011;57470;50.034;15.256;2024-02-23T00:15:23;8.27;;;2.43;;
70102;SDS011;57470;50.034;15.256;2024-02-23T00:17:50;8.98;;;2.10;;
70102;SDS011;57470;50.034;15.256;2024-02-23T00:20:15;7.33;;;2.30;;
70102;SDS011;57470;50.034;15.256;2024-02-23T00:22:41;12.80;;;3.50;;
70102;SDS011;57470;50.034;15.256;2024-02-23T00:25:06;8.67;;;3.03;;
70102;SDS011;57470;50.034;15.256;2024-02-23T00:27:31;5.63;;;2.45;;
70102;SDS011;57470;50.034;15.256;2024-02-23T00:29:57;4.77;;;1.37;;
70102;SDS011;57470;50.034;15.256;2024-02-23T00:32:22;3.97;;;0.93;;
70102;SDS011;57470;50.034;15.256;2024-02-23T00:34:48;5.00;;;1.53;;
70102;SDS011;57470;50.034;15.256;2024-02-23T00:37:13;4.87;;;1.43;;
70102;SDS011;57470;50.034;15.256;2024-02-23T00:39:38;6.43;;;1.63;;
70102;SDS011;57470;50.034;15.256;2024-02-23T00:42:04;4.87;;;1.57;;
70102;SDS011;57470;50.034;15.256;2024-02-23T00:44:29;5.13;;;1.13;;
70102;SDS011;57470;50.034;15.256;2024-02-23T00:46:55;4.67;;;1.00;;
70102;SDS011;57470;50.034;15.256;2024-02-23T00:49:22;4.10;;;1.15;;
70102;SDS011;57470;50.034;15.256;2024-02-23T00:51:48;2.27;;;0.40;;
70102;SDS011;57470;50.034;15.256;2024-02-23T00:54:13;5.43;;;0.87;;
70102;SDS011;57470;50.034;15.256;2024-02-23T00:56:38;3.78;;;0.93;;
70102;SDS011;57470;50.034;15.256;2024-02-23T00:59:04;2.93;;;0.67;;
70102;SDS011;57470;50.034;15.256;2024-02-23T01:01:29;3.67;;;1.07;;
70102;SDS011;57470;50.034;15.256;2024-02-23T01:03:54;4.13;;;1.07;;
70102;SDS011;57470;50.034;15.256;2024-02-23T01:06:20;2.00;;;0.40;;
70102;SDS011;57470;50.034;15.256;2024-02-23T01:08:45;3.77;;;1.03;;
70102;SDS011;57470;50.034;15.256;2024-02-23T01:11:11;9.63;;;1.80;;
70102;SDS011;57470;50.034;15.256;2024-02-23T01:13:36;7.45;;;1.70;;
70102;SDS011;57470;50.034;15.256;2024-02-23T01:16:02;2.83;;;0.63;;
70102;SDS011;57470;50.034;15.256;2024-02-23T01:18:27;5.37;;;1.60;;
70102;SDS011;57470;50.034;15.256;2024-02-23T01:20:53;8.48;;;1.75;;
70102;SDS011;57470;50.034;15.256;2024-02-23T01:23:18;5.90;;;1.37;;
70102;SDS011;57470;50.034;15.256;2024-02-23T01:25:43;7.53;;;2.40;;
70102;SDS011;57470;50.034;15.256;2024-02-23T01:28:09;6.43;;;1.30;;
70102;SDS011;57470;50.034;15.256;2024-02-23T01:30:34;7.07;;;1.87;;
70102;SDS011;57470;50.034;15.256;2024-02-23T01:32:59;4.43;;;1.43;;
70102;SDS011;57470;50.034;15.256;2024-02-23T01:35:25;8.73;;;1.45;;
70102;SDS011;57470;50.034;15.256;2024-02-23T01:37:51;4.37;;;1.23;;
70102;SDS011;57470;50.034;15.256;2024-02-23T01:40:16;5.23;;;2.03;;
70102;SDS011;57470;50.034;15.256;2024-02-23T01:42:41;6.57;;;1.97;;
70102;SDS011;57470;50.034;15.256;2024-02-23T01:45:07;5.07;;;1.60;;
70102;SDS011;57470;50.034;15.256;2024-02-23T01:47:32;3.60;;;0.80;;
70102;SDS011;57470;50.034;15.256;2024-02-23T01:49:58;6.80;;;2.30;;
70102;SDS011;57470;50.034;15.256;2024-02-23T01:52:24;3.85;;;0.73;;
70102;SDS011;57470;50.034;15.256;2024-02-23T01:54:50;4.87;;;1.13;;
70102;SDS011;57470;50.034;15.256;2024-02-23T01:57:16;2.33;;;0.57;;
70102;SDS011;57470;50.034;15.256;2024-02-23T01:59:42;4.03;;;1.02;;
70102;SDS011;57470;50.034;15.256;2024-02-23T02:02:08;3.40;;;0.90;;
70102;SDS011;57470;50.034;15.256;2024-02-23T02:04:33;3.23;;;0.83;;
70102;SDS011;57470;50.034;15.256;2024-02-23T02:07:00;3.23;;;0.60;;
70102;SDS011;57470;50.034;15.256;2024-02-23T02:09:28;3.03;;;0.63;;
70102;SDS011;57470;50.034;15.256;2024-02-23T02:11:55;5.10;;;1.20;;
70102;SDS011;57470;50.034;15.256;2024-02-23T02:14:22;3.67;;;0.60;;
70102;SDS011;57470;50.034;15.256;2024-02-23T02:16:49;3.30;;;1.08;;
70102;SDS011;57470;50.034;15.256;2024-02-23T02:19:16;3.05;;;0.88;;
70102;SDS011;57470;50.034;15.256;2024-02-23T02:21:42;4.23;;;1.17;;
70102;SDS011;57470;50.034;15.256;2024-02-23T02:24:09;3.53;;;1.13;;
70102;SDS011;57470;50.034;15.256;2024-02-23T02:26:36;4.50;;;0.73;;
70102;SDS011;57470;50.034;15.256;2024-02-23T02:29:03;3.35;;;0.85;;
70102;SDS011;57470;50.034;15.256;2024-02-23T02:31:30;2.63;;;0.63;;
70102;SDS011;57470;50.034;15.256;2024-02-23T02:34:02;3.53;;;0.70;;
70102;SDS011;57470;50.034;15.256;2024-02-23T02:36:30;4.57;;;0.60;;
70102;SDS011;57470;50.034;15.256;2024-02-23T02:38:57;2.78;;;0.77;;
70102;SDS011;57470;50.034;15.256;2024-02-23T02:41:24;3.50;;;1.17;;
70102;SDS011;57470;50.034;15.256;2024-02-23T02:43:57;2.80;;;0.85;;
70102;SDS011;57470;50.034;15.256;2024-02-23T02:46:24;2.33;;;0.60;;
70102;SDS011;57470;50.034;15.256;2024-02-23T02:48:51;2.95;;;0.68;;
70102;SDS011;57470;50.034;15.256;2024-02-23T02:51:17;3.28;;;0.80;;
70102;SDS011;57470;50.034;15.256;2024-02-23T02:53:44;3.78;;;0.77;;
70102;SDS011;57470;50.034;15.256;2024-02-23T02:56:11;2.38;;;0.50;;
70102;SDS011;57470;50.034;15.256;2024-02-23T02:58:37;2.97;;;0.63;;
70102;SDS011;57470;50.034;15.256;2024-02-23T03:01:05;2.70;;;0.50;;
70102;SDS011;57470;50.034;15.256;2024-02-23T03:03:32;3.03;;;0.80;;
70102;SDS011;57470;50.034;15.256;2024-02-23T03:05:58;2.03;;;0.40;;
70102;SDS011;57470;50.034;15.256;2024-02-23T03:08:25;2.47;;;0.50;;
70102;SDS011;57470;50.034;15.256;2024-02-23T03:10:51;1.90;;;0.50;;
70102;SDS011;57470;50.034;15.256;2024-02-23T03:13:16;2.30;;;0.70;;
70102;SDS011;57470;50.034;15.256;2024-02-23T03:15:42;3.97;;;1.13;;
70102;SDS011;57470;50.034;15.256;2024-02-23T03:18:07;2.75;;;0.47;;
70102;SDS011;57470;50.034;15.256;2024-02-23T03:20:34;1.87;;;0.30;;
70102;SDS011;57470;50.034;15.256;2024-02-23T03:23:00;1.80;;;0.30;;
70102;SDS011;57470;50.034;15.256;2024-02-23T03:25:27;2.40;;;0.50;;
70102;SDS011;57470;50.034;15.256;2024-02-23T03:27:52;2.75;;;0.52;;
70102;SDS011;57470;50.034;15.256;2024-02-23T03:30:18;3.30;;;1.20;;
70102;SDS011;57470;50.034;15.256;2024-02-23T03:32:43;2.70;;;0.60;;
70102;SDS011;57470;50.034;15.256;2024-02-23T03:35:08;2.17;;;0.50;;
70102;SDS011;57470;50.034;15.256;2024-02-23T03:37:34;2.40;;;0.50;;
70102;SDS011;57470;50.034;15.256;2024-02-23T03:39:59;1.67;;;0.30;;
70102;SDS011;57470;50.034;15.256;2024-02-23T03:42:25;1.92;;;0.50;;
70102;SDS011;57470;50.034;15.256;2024-02-23T03:44:51;1.63;;;0.35;;
70102;SDS011;57470;50.034;15.256;2024-02-23T03:47:17;1.80;;;0.40;;
70102;SDS011;57470;50.034;15.256;2024-02-23T03:49:42;4.10;;;0.30;;
70102;SDS011;57470;50.034;15.256;2024-02-23T03:52:08;1.97;;;0.30;;
70102;SDS011;57470;50.034;15.256;2024-02-23T03:54:33;2.17;;;0.40;;
70102;SDS011;57470;50.034;15.256;2024-02-23T03:56:58;6.67;;;0.80;;
70102;SDS011;57470;50.034;15.256;2024-02-23T03:59:24;1.77;;;0.40;;
70102;SDS011;57470;50.034;15.256;2024-02-23T04:01:49;2.23;;;0.57;;
70102;SDS011;57470;50.034;15.256;2024-02-23T04:04:14;2.40;;;0.53;;
70102;SDS011;57470;50.034;15.256;2024-02-23T04:06:40;1.70;;;0.33;;
70102;SDS011;57470;50.034;15.256;2024-02-23T04:09:05;1.50;;;0.30;;
70102;SDS011;57470;50.034;15.256;2024-02-23T04:11:31;1.33;;;0.20;;
70102;SDS011;57470;50.034;15.256;2024-02-23T04:13:57;3.30;;;0.50;;
70102;SDS011;57470;50.034;15.256;2024-02-23T04:16:23;1.53;;;0.30;;
70102;SDS011;57470;50.034;15.256;2024-02-23T04:18:49;1.67;;;0.30;;
70102;SDS011;57470;50.034;15.256;2024-02-23T04:21:15;3.78;;;0.63;;
70102;SDS011;57470;50.034;15.256;2024-02-23T04:23:40;2.20;;;0.50;;
70102;SDS011;57470;50.034;15.256;2024-02-23T04:26:06;1.60;;;0.30;;
70102;SDS011;57470;50.034;15.256;2024-02-23T04:28:31;1.70;;;0.30;;
70102;SDS011;57470;50.034;15.256;2024-02-23T04:30:58;1.50;;;0.25;;
70102;SDS011;57470;50.034;15.256;2024-02-23T04:33:24;1.60;;;0.30;;
70102;SDS011;57470;50.034;15.256;2024-02-23T04:35:49;2.00;;;0.30;;
70102;SDS011;57470;50.034;15.256;2024-02-23T04:38:15;2.30;;;0.50;;
70102;SDS011;57470;50.034;15.256;2024-02-23T04:40:40;1.77;;;0.30;;
70102;SDS011;57470;50.034;15.256;2024-02-23T04:43:06;1.43;;;0.20;;
70102;SDS011;57470;50.034;15.256;2024-02-23T04:45:31;2.13;;;0.40;;
70102;SDS011;57470;50.034;15.256;2024-02-23T04:47:56;2.33;;;0.60;;
70102;SDS011;57470;50.034;15.256;2024-02-23T04:50:22;2.17;;;0.60;;
70102;SDS011;57470;50.034;15.256;2024-02-23T04:52:48;1.55;;;0.30;;
70102;SDS011;57470;50.034;15.256;2024-02-23T04:55:15;2.17;;;0.40;;
70102;SDS011;57470;50.034;15.256;2024-02-23T04:57:40;1.60;;;0.30;;
70102;SDS011;57470;50.034;15.256;2024-02-23T05:00:06;1.90;;;0.40;;
70102;SDS011;57470;50.034;15.256;2024-02-23T05:02:32;1.43;;;0.20;;
70102;SDS011;57470;50.034;15.256;2024-02-23T05:05:00;1.58;;;0.30;;
70102;SDS011;57470;50.034;15.256;2024-02-23T05:07:29;2.40;;;0.57;;
70102;SDS011;57470;50.034;15.256;2024-02-23T05:09:56;2.13;;;0.50;;
70102;SDS011;57470;50.034;15.256;2024-02-23T05:12:21;2.63;;;0.43;;
70102;SDS011;57470;50.034;15.256;2024-02-23T05:14:47;2.63;;;0.60;;
70102;SDS011;57470;50.034;15.256;2024-02-23T05:17:12;1.43;;;0.23;;
70102;SDS011;57470;50.034;15.256;2024-02-23T05:19:37;1.73;;;0.32;;
70102;SDS011;57470;50.034;15.256;2024-02-23T05:22:03;2.03;;;0.30;;
70102;SDS011;57470;50.034;15.256;2024-02-23T05:24:28;1.97;;;0.43;;
70102;SDS011;57470;50.034;15.256;2024-02-23T05:26:54;1.90;;;0.40;;
70102;SDS011;57470;50.034;15.256;2024-02-23T05:29:19;2.25;;;0.68;;
70102;SDS011;57470;50.034;15.256;2024-02-23T05:31:51;1.50;;;0.20;;
70102;SDS011;57470;50.034;15.256;2024-02-23T05:34:17;2.85;;;0.40;;
70102;SDS011;57470;50.034;15.256;2024-02-23T05:36:44;1.95;;;0.47;;
70102;SDS011;57470;50.034;15.256;2024-02-23T05:39:10;1.40;;;0.20;;
70102;SDS011;57470;50.034;15.256;2024-02-23T05:41:37;1.80;;;0.40;;
70102;SDS011;57470;50.034;15.256;2024-02-23T05:44:03;1.80;;;0.40;;
70102;SDS011;57470;50.034;15.256;2024-02-23T05:46:39;1.55;;;0.30;;
70102;SDS011;57470;50.034;15.256;2024-02-23T05:49:05;1.95;;;0.45;;
70102;SDS011;57470;50.034;15.256;2024-02-23T05:51:30;2.20;;;0.50;;
70102;SDS011;57470;50.034;15.256;2024-02-23T05:53:56;2.28;;;0.30;;
70102;SDS011;57470;50.034;15.256;2024-02-23T05:56:22;1.50;;;0.27;;
70102;SDS011;57470;50.034;15.256;2024-02-23T05:58:51;1.73;;;0.32;;
70102;SDS011;57470;50.034;15.256;2024-02-23T06:01:17;1.58;;;0.30;;
70102;SDS011;57470;50.034;15.256;2024-02-23T06:03:43;1.77;;;0.30;;
70102;SDS011;57470;50.034;15.256;2024-02-23T06:06:09;1.40;;;0.20;;
70102;SDS011;57470;50.034;15.256;2024-02-23T06:08:35;2.03;;;0.50;;
70102;SDS011;57470;50.034;15.256;2024-02-23T06:11:01;2.00;;;0.30;;
70102;SDS011;57470;50.034;15.256;2024-02-23T06:13:28;2.53;;;0.60;;
70102;SDS011;57470;50.034;15.256;2024-02-23T06:15:53;2.13;;;0.50;;
70102;SDS011;57470;50.034;15.256;2024-02-23T06:18:19;2.30;;;0.60;;
70102;SDS011;57470;50.034;15.256;2024-02-23T06:20:44;2.30;;;0.40;;
70102;SDS011;57470;50.034;15.256;2024-02-23T06:23:10;3.42;;;0.43;;
70102;SDS011;57470;50.034;15.256;2024-02-23T06:25:35;2.33;;;0.47;;
70102;SDS011;57470;50.034;15.256;2024-02-23T06:28:00;3.00;;;0.83;;
70102;SDS011;57470;50.034;15.256;2024-02-23T06:30:26;3.50;;;1.00;;
70102;SDS011;57470;50.034;15.256;2024-02-23T06:32:51;3.40;;;0.97;;
70102;SDS011;57470;50.034;15.256;2024-02-23T06:35:16;3.27;;;0.77;;
70102;SDS011;57470;50.034;15.256;2024-02-23T06:37:42;2.83;;;0.73;;
70102;SDS011;57470;50.034;15.256;2024-02-23T06:40:07;1.73;;;0.32;;
70102;SDS011;57470;50.034;15.256;2024-02-23T06:42:33;1.70;;;0.40;;
70102;SDS011;57470;50.034;15.256;2024-02-23T06:44:59;1.88;;;0.55;;
70102;SDS011;57470;50.034;15.256;2024-02-23T06:47:24;2.13;;;0.30;;
70102;SDS011;57470;50.034;15.256;2024-02-23T06:49:50;5.40;;;0.40;;
70102;SDS011;57470;50.034;15.256;2024-02-23T06:52:15;1.57;;;0.23;;
70102;SDS011;57470;50.034;15.256;2024-02-23T06:54:41;11.13;;;0.55;;
70102;SDS011;57470;50.034;15.256;2024-02-23T06:57:06;2.93;;;0.73;;
70102;SDS011;57470;50.034;15.256;2024-02-23T06:59:32;4.38;;;0.70;;
70102;SDS011;57470;50.034;15.256;2024-02-23T07:01:58;6.30;;;1.50;;
70102;SDS011;57470;50.034;15.256;2024-02-23T07:04:23;4.50;;;1.30;;
70102;SDS011;57470;50.034;15.256;2024-02-23T07:06:48;3.83;;;1.20;;
70102;SDS011;57470;50.034;15.256;2024-02-23T07:09:14;3.43;;;0.83;;
70102;SDS011;57470;50.034;15.256;2024-02-23T07:11:39;4.73;;;1.50;;
70102;SDS011;57470;50.034;15.256;2024-02-23T07:14:07;5.35;;;1.33;;
70102;SDS011;57470;50.034;15.256;2024-02-23T07:16:37;3.43;;;0.97;;
70102;SDS011;57470;50.034;15.256;2024-02-23T07:19:03;3.25;;;0.40;;
70102;SDS011;57470;50.034;15.256;2024-02-23T07:21:28;2.17;;;0.50;;
70102;SDS011;57470;50.034;15.256;2024-02-23T07:23:54;2.67;;;0.57;;
70102;SDS011;57470;50.034;15.256;2024-02-23T07:26:19;2.60;;;0.67;;
70102;SDS011;57470;50.034;15.256;2024-02-23T07:28:47;2.35;;;0.47;;
70102;SDS011;57470;50.034;15.256;2024-02-23T07:31:12;2.63;;;0.70;;
70102;SDS011;57470;50.034;15.256;2024-02-23T07:33:38;2.33;;;0.37;;
70102;SDS011;57470;50.034;15.256;2024-02-23T07:36:03;5.33;;;0.70;;
70102;SDS011;57470;50.034;15.256;2024-02-23T07:38:29;5.75;;;1.38;;
70102;SDS011;57470;50.034;15.256;2024-02-23T07:40:54;3.23;;;0.90;;
70102;SDS011;57470;50.034;15.256;2024-02-23T07:43:20;3.57;;;0.80;;
70102;SDS011;57470;50.034;15.256;2024-02-23T07:45:45;2.55;;;0.68;;
70102;SDS011;57470;50.034;15.256;2024-02-23T07:48:11;2.87;;;0.73;;
70102;SDS011;57470;50.034;15.256;2024-02-23T07:50:36;2.60;;;0.60;;
70102;SDS011;57470;50.034;15.256;2024-02-23T07:53:02;2.30;;;0.40;;
70102;SDS011;57470;50.034;15.256;2024-02-23T07:55:27;2.13;;;0.45;;
70102;SDS011;57470;50.034;15.256;2024-02-23T07:57:52;1.53;;;0.43;;
70102;SDS011;57470;50.034;15.256;2024-02-23T08:00:22;2.58;;;0.43;;
70102;SDS011;57470;50.034;15.256;2024-02-23T08:02:47;1.97;;;0.40;;
70102;SDS011;57470;50.034;15.256;2024-02-23T08:05:13;2.73;;;0.57;;
70102;SDS011;57470;50.034;15.256;2024-02-23T08:07:38;3.30;;;0.57;;
70102;SDS011;57470;50.034;15.256;2024-02-23T08:10:04;3.03;;;0.55;;
70102;SDS011;57470;50.034;15.256;2024-02-23T08:12:30;2.63;;;0.50;;
70102;SDS011;57470;50.034;15.256;2024-02-23T08:14:55;2.33;;;0.50;;
70102;SDS011;57470;50.034;15.256;2024-02-23T08:17:20;1.97;;;0.40;;
70102;SDS011;57470;50.034;15.256;2024-02-23T08:19:46;2.00;;;0.50;;
70102;SDS011;57470;50.034;15.256;2024-02-23T08:22:12;3.00;;;0.63;;
70102;SDS011;57470;50.034;15.256;2024-02-23T08:24:37;3.13;;;0.87;;
70102;SDS011;57470;50.034;15.256;2024-02-23T08:27:02;1.67;;;0.30;;
70102;SDS011;57470;50.034;15.256;2024-02-23T08:29:28;2.07;;;0.50;;
70102;SDS011;57470;50.034;15.256;2024-02-23T08:31:53;1.97;;;0.40;;
70102;SDS011;57470;50.034;15.256;2024-02-23T08:34:19;2.70;;;0.50;;
70102;SDS011;57470;50.034;15.256;2024-02-23T08:36:44;1.33;;;0.20;;
70102;SDS011;57470;50.034;15.256;2024-02-23T08:39:10;2.27;;;0.50;;
70102;SDS011;57470;50.034;15.256;2024-02-23T08:41:35;3.13;;;0.50;;
70102;SDS011;57470;50.034;15.256;2024-02-23T08:44:01;3.53;;;0.57;;
70102;SDS011;57470;50.034;15.256;2024-02-23T08:46:26;1.87;;;0.40;;
70102;SDS011;57470;50.034;15.256;2024-02-23T08:48:51;2.23;;;0.70;;
70102;SDS011;57470;50.034;15.256;2024-02-23T08:51:17;2.13;;;0.50;;
70102;SDS011;57470;50.034;15.256;2024-02-23T08:53:42;1.77;;;0.37;;
70102;SDS011;57470;50.034;15.256;2024-02-23T08:56:08;2.10;;;0.50;;
70102;SDS011;57470;50.034;15.256;2024-02-23T08:58:34;2.83;;;0.60;;
70102;SDS011;57470;50.034;15.256;2024-02-23T09:01:00;1.60;;;0.30;;
70102;SDS011;57470;50.034;15.256;2024-02-23T09:03:25;3.50;;;0.80;;
70102;SDS011;57470;50.034;15.256;2024-02-23T09:05:50;4.77;;;0.70;;
70102;SDS011;57470;50.034;15.256;2024-02-23T09:08:16;4.47;;;0.90;;
70102;SDS011;57470;50.034;15.256;2024-02-23T09:10:41;2.08;;;0.30;;
70102;SDS011;57470;50.034;15.256;2024-02-23T09:13:07;1.60;;;0.20;;
70102;SDS011;57470;50.034;15.256;2024-02-23T09:15:32;2.57;;;0.60;;
70102;SDS011;57470;50.034;15.256;2024-02-23T09:17:58;1.75;;;0.30;;
70102;SDS011;57470;50.034;15.256;2024-02-23T09:20:23;2.67;;;0.70;;
70102;SDS011;57470;50.034;15.256;2024-02-23T09:22:48;2.00;;;0.50;;
70102;SDS011;57470;50.034;15.256;2024-02-23T09:25:14;1.50;;;0.20;;
70102;SDS011;57470;50.034;15.256;2024-02-23T09:27:39;2.00;;;0.50;;
70102;SDS011;57470;50.034;15.256;2024-02-23T09:30:09;2.70;;;0.50;;
70102;SDS011;57470;50.034;15.256;2024-02-23T09:32:38;3.47;;;0.52;;
70102;SDS011;57470;50.034;15.256;2024-02-23T09:35:04;2.03;;;0.30;;
70102;SDS011;57470;50.034;15.256;2024-02-23T09:37:30;2.50;;;0.60;;
70102;SDS011;57470;50.034;15.256;2024-02-23T09:39:55;3.57;;;0.60;;
70102;SDS011;57470;50.034;15.256;2024-02-23T09:42:22;3.57;;;0.40;;
70102;SDS011;57470;50.034;15.256;2024-02-23T09:44:50;2.83;;;0.60;;
70102;SDS011;57470;50.034;15.256;2024-02-23T09:47:24;2.50;;;0.60;;
70102;SDS011;57470;50.034;15.256;2024-02-23T09:49:50;2.70;;;0.60;;
70102;SDS011;57470;50.034;15.256;2024-02-23T09:52:17;4.95;;;0.70;;
70102;SDS011;57470;50.034;15.256;2024-02-23T09:54:44;2.75;;;0.75;;
70102;SDS011;57470;50.034;15.256;2024-02-23T09:57:10;4.30;;;1.17;;
70102;SDS011;57470;50.034;15.256;2024-02-23T09:59:35;3.88;;;1.25;;
70102;SDS011;57470;50.034;15.256;2024-02-23T10:02:08;2.70;;;0.47;;
70102;SDS011;57470;50.034;15.256;2024-02-23T10:04:35;2.63;;;0.52;;
70102;SDS011;57470;50.034;15.256;2024-02-23T10:07:01;2.53;;;0.57;;
70102;SDS011;57470;50.034;15.256;2024-02-23T10:09:26;3.67;;;1.10;;
70102;SDS011;57470;50.034;15.256;2024-02-23T10:11:55;3.03;;;0.70;;
70102;SDS011;57470;50.034;15.256;2024-02-23T10:14:20;3.40;;;0.68;;
70102;SDS011;57470;50.034;15.256;2024-02-23T10:16:46;3.30;;;0.73;;
70102;SDS011;57470;50.034;15.256;2024-02-23T10:19:12;4.30;;;0.90;;
70102;SDS011;57470;50.034;15.256;2024-02-23T10:21:37;4.83;;;1.40;;
70102;SDS011;57470;50.034;15.256;2024-02-23T10:24:04;2.43;;;0.60;;
70102;SDS011;57470;50.034;15.256;2024-02-23T10:26:30;4.40;;;0.80;;
70102;SDS011;57470;50.034;15.256;2024-02-23T10:28:55;2.77;;;0.50;;
70102;SDS011;57470;50.034;15.256;2024-02-23T10:31:21;3.17;;;0.73;;
70102;SDS011;57470;50.034;15.256;2024-02-23T10:33:49;3.42;;;0.98;;
70102;SDS011;57470;50.034;15.256;2024-02-23T10:36:17;1.93;;;0.33;;
70102;SDS011;57470;50.034;15.256;2024-02-23T10:38:43;2.53;;;0.68;;
70102;SDS011;57470;50.034;15.256;2024-02-23T10:41:12;3.33;;;0.52;;
70102;SDS011;57470;50.034;15.256;2024-02-23T10:43:45;2.43;;;0.63;;
70102;SDS011;57470;50.034;15.256;2024-02-23T10:46:12;3.47;;;1.02;;
70102;SDS011;57470;50.034;15.256;2024-02-23T10:48:39;2.17;;;0.60;;
70102;SDS011;57470;50.034;15.256;2024-02-23T10:51:06;2.13;;;0.50;;
70102;SDS011;57470;50.034;15.256;2024-02-23T10:53:33;2.13;;;0.43;;
70102;SDS011;57470;50.034;15.256;2024-02-23T10:56:01;2.20;;;0.43;;
70102;SDS011;57470;50.034;15.256;2024-02-23T10:58:29;5.65;;;0.90;;
70102;SDS011;57470;50.034;15.256;2024-02-23T11:00:58;4.63;;;0.80;;
70102;SDS011;57470;50.034;15.256;2024-02-23T11:03:26;5.03;;;0.95;;
70102;SDS011;57470;50.034;15.256;2024-02-23T11:05:53;6.30;;;0.73;;
70102;SDS011;57470;50.034;15.256;2024-02-23T11:08:19;2.73;;;0.30;;
70102;SDS011;57470;50.034;15.256;2024-02-23T11:10:51;2.13;;;0.50;;
70102;SDS011;57470;50.034;15.256;2024-02-23T11:13:35;3.22;;;0.70;;
70102;SDS011;57470;50.034;15.256;2024-02-23T11:16:05;2.65;;;0.47;;
70102;SDS011;57470;50.034;15.256;2024-02-23T11:18:31;2.87;;;0.73;;
70102;SDS011;57470;50.034;15.256;2024-02-23T11:20:59;3.03;;;0.65;;
70102;SDS011;57470;50.034;15.256;2024-02-23T11:23:27;2.70;;;0.63;;
70102;SDS011;57470;50.034;15.256;2024-02-23T11:25:59;2.58;;;0.75;;
70102;SDS011;57470;50.034;15.256;2024-02-23T11:28:51;2.03;;;0.40;;
70102;SDS011;57470;50.034;15.256;2024-02-23T11:31:19;3.03;;;0.70;;
70102;SDS011;57470;50.034;15.256;2024-02-23T11:33:49;2.63;;;0.70;;
70102;SDS011;57470;50.034;15.256;2024-02-23T11:36:22;3.42;;;0.47;;
70102;SDS011;57470;50.034;15.256;2024-02-23T11:38:54;1.80;;;0.30;;
70102;SDS011;57470;50.034;15.256;2024-02-23T11:41:22;3.27;;;0.63;;
70102;SDS011;57470;50.034;15.256;2024-02-23T11:43:48;3.20;;;0.68;;
70102;SDS011;57470;50.034;15.256;2024-02-23T11:46:15;2.80;;;0.65;;
70102;SDS011;57470;50.034;15.256;2024-02-23T11:48:41;2.53;;;0.75;;
70102;SDS011;57470;50.034;15.256;2024-02-23T11:51:08;2.30;;;0.60;;
70102;SDS011;57470;50.034;15.256;2024-02-23T11:53:34;2.90;;;0.55;;
70102;SDS011;57470;50.034;15.256;2024-02-23T11:56:01;2.85;;;0.55;;
70102;SDS011;57470;50.034;15.256;2024-02-23T11:58:27;3.70;;;0.37;;
70102;SDS011;57470;50.034;15.256;2024-02-23T12:00:52;2.92;;;0.47;;
70102;SDS011;57470;50.034;15.256;2024-02-23T12:03:18;2.07;;;0.30;;
70102;SDS011;57470;50.034;15.256;2024-02-23T12:05:43;2.57;;;0.57;;
70102;SDS011;57470;50.034;15.256;2024-02-23T12:08:09;1.93;;;0.47;;
70102;SDS011;57470;50.034;15.256;2024-02-23T12:10:34;2.17;;;0.45;;
70102;SDS011;57470;50.034;15.256;2024-02-23T12:13:01;2.85;;;0.68;;
70102;SDS011;57470;50.034;15.256;2024-02-23T12:15:27;2.70;;;0.70;;
70102;SDS011;57470;50.034;15.256;2024-02-23T12:17:53;2.05;;;0.50;;
70102;SDS011;57470;50.034;15.256;2024-02-23T12:20:19;3.80;;;0.70;;
70102;SDS011;57470;50.034;15.256;2024-02-23T12:22:46;1.77;;;0.30;;
70102;SDS011;57470;50.034;15.256;2024-02-23T12:25:12;3.10;;;0.77;;
70102;SDS011;57470;50.034;15.256;2024-02-23T12:27:37;2.97;;;0.95;;
70102;SDS011;57470;50.034;15.256;2024-02-23T12:30:03;6.77;;;1.20;;
70102;SDS011;57470;50.034;15.256;2024-02-23T12:32:29;4.65;;;0.82;;
70102;SDS011;57470;50.034;15.256;2024-02-23T12:34:54;4.90;;;1.60;;
70102;SDS011;57470;50.034;15.256;2024-02-23T12:37:21;2.53;;;0.77;;
70102;SDS011;57470;50.034;15.256;2024-02-23T12:39:48;2.22;;;0.50;;
70102;SDS011;57470;50.034;15.256;2024-02-23T12:42:13;2.50;;;0.67;;
70102;SDS011;57470;50.034;15.256;2024-02-23T12:44:39;3.87;;;0.50;;
70102;SDS011;57470;50.034;15.256;2024-02-23T12:47:04;3.53;;;0.60;;
70102;SDS011;57470;50.034;15.256;2024-02-23T12:49:29;2.10;;;0.40;;
70102;SDS011;57470;50.034;15.256;2024-02-23T12:51:55;3.93;;;1.23;;
70102;SDS011;57470;50.034;15.256;2024-02-23T12:54:21;4.32;;;0.90;;
70102;SDS011;57470;50.034;15.256;2024-02-23T12:56:48;3.08;;;0.85;;
70102;SDS011;57470;50.034;15.256;2024-02-23T12:59:14;2.30;;;0.52;;
70102;SDS011;57470;50.034;15.256;2024-02-23T13:01:40;3.00;;;0.80;;
70102;SDS011;57470;50.034;15.256;2024-02-23T13:04:05;3.80;;;0.63;;
70102;SDS011;57470;50.034;15.256;2024-02-23T13:06:36;2.30;;;0.47;;
70102;SDS011;57470;50.034;15.256;2024-02-23T13:09:03;3.33;;;0.65;;
70102;SDS011;57470;50.034;15.256;2024-02-23T13:11:29;4.20;;;0.80;;
70102;SDS011;57470;50.034;15.256;2024-02-23T13:13:54;4.33;;;0.40;;
70102;SDS011;57470;50.034;15.256;2024-02-23T13:16:20;2.70;;;0.73;;
70102;SDS011;57470;50.034;15.256;2024-02-23T13:18:45;2.60;;;0.87;;
70102;SDS011;57470;50.034;15.256;2024-02-23T13:21:12;3.47;;;0.68;;
70102;SDS011;57470;50.034;15.256;2024-02-23T13:23:37;7.82;;;1.95;;
70102;SDS011;57470;50.034;15.256;2024-02-23T13:26:04;8.05;;;2.05;;
70102;SDS011;57470;50.034;15.256;2024-02-23T13:28:29;9.40;;;4.23;;
70102;SDS011;57470;50.034;15.256;2024-02-23T13:30:55;16.37;;;4.23;;
70102;SDS011;57470;50.034;15.256;2024-02-23T13:33:20;10.33;;;3.00;;
70102;SDS011;57470;50.034;15.256;2024-02-23T13:35:47;10.88;;;1.65;;
70102;SDS011;57470;50.034;15.256;2024-02-23T13:38:12;5.47;;;1.73;;
70102;SDS011;57470;50.034;15.256;2024-02-23T13:40:38;4.33;;;1.03;;
70102;SDS011;57470;50.034;15.256;2024-02-23T13:43:03;4.47;;;0.90;;
70102;SDS011;57470;50.034;15.256;2024-02-23T13:45:29;3.37;;;0.73;;
70102;SDS011;57470;50.034;15.256;2024-02-23T13:47:59;2.67;;;0.55;;
70102;SDS011;57470;50.034;15.256;2024-02-23T13:50:25;6.57;;;2.07;;
70102;SDS011;57470;50.034;15.256;2024-02-23T13:52:51;4.20;;;1.40;;
70102;SDS011;57470;50.034;15.256;2024-02-23T13:55:17;4.43;;;1.25;;
70102;SDS011;57470;50.034;15.256;2024-02-23T13:57:42;2.67;;;0.80;;
70102;SDS011;57470;50.034;15.256;2024-02-23T14:00:08;4.07;;;1.17;;
70102;SDS011;57470;50.034;15.256;2024-02-23T14:02:37;4.40;;;0.93;;
70102;SDS011;57470;50.034;15.256;2024-02-23T14:05:05;7.35;;;1.50;;
70102;SDS011;57470;50.034;15.256;2024-02-23T14:07:31;8.43;;;1.30;;
70102;SDS011;57470;50.034;15.256;2024-02-23T14:09:57;2.83;;;0.73;;
70102;SDS011;57470;50.034;15.256;2024-02-23T14:12:23;2.55;;;0.57;;
70102;SDS011;57470;50.034;15.256;2024-02-23T14:14:48;6.30;;;0.80;;
70102;SDS011;57470;50.034;15.256;2024-02-23T14:17:13;2.33;;;0.50;;
70102;SDS011;57470;50.034;15.256;2024-02-23T14:19:39;2.70;;;0.80;;
70102;SDS011;57470;50.034;15.256;2024-02-23T14:22:04;3.77;;;0.93;;
70102;SDS011;57470;50.034;15.256;2024-02-23T14:24:30;3.53;;;1.13;;
70102;SDS011;57470;50.034;15.256;2024-02-23T14:26:55;3.40;;;0.87;;